createdAt,value
2022-10-23T00:00:24.255Z,93.60
2022-10-23T00:01:31.324Z,93.60
2022-10-23T00:02:33.828Z,93.60
2022-10-23T00:03:37.318Z,93.60
2022-10-23T00:04:39.902Z,93.70
2022-10-23T00:05:43.393Z,93.70
2022-10-23T00:06:47.241Z,93.80
2022-10-23T00:07:52.426Z,93.80
2022-10-23T00:08:57.546Z,93.80
2022-10-23T00:10:00.983Z,93.80
2022-10-23T00:11:10.041Z,93.80
2022-10-23T00:12:18.140Z,93.90
2022-10-23T00:13:25.701Z,93.80
2022-10-23T00:14:31.424Z,93.90
2022-10-23T00:15:36.969Z,94.00
2022-10-23T00:16:40.585Z,94.00
2022-10-23T00:17:45.129Z,94.00
2022-10-23T00:18:54.059Z,94.00
2022-10-23T00:19:56.594Z,94.00
2022-10-23T00:21:00.457Z,94.00
2022-10-23T00:22:02.883Z,94.10
2022-10-23T00:23:08.615Z,94.20
2022-10-23T00:24:11.314Z,94.10
2022-10-23T00:25:16.463Z,94.10
2022-10-23T00:26:22.137Z,94.10
2022-10-23T00:27:24.804Z,94.20
2022-10-23T00:28:28.707Z,94.20
2022-10-23T00:29:31.171Z,94.20
2022-10-23T00:30:34.681Z,94.20
2022-10-23T00:31:40.620Z,94.20
2022-10-23T00:32:44.204Z,94.20
2022-10-23T00:33:47.446Z,94.30
2022-10-23T00:34:51.137Z,94.30
2022-10-23T00:35:54.253Z,94.30
2022-10-23T00:36:58.194Z,94.40
2022-10-23T00:38:00.677Z,94.40
2022-10-23T00:39:09.679Z,94.40
2022-10-23T00:40:13.163Z,94.50
2022-10-23T00:41:21.199Z,94.50
2022-10-23T00:42:24.983Z,94.50
2022-10-23T00:43:31.467Z,94.60
2022-10-23T00:45:24.137Z,94.60
2022-10-23T00:46:27.236Z,94.70
2022-10-23T00:47:30.768Z,94.70
2022-10-23T00:48:33.430Z,94.70
2022-10-23T00:49:42.024Z,94.70
2022-10-23T00:50:47.804Z,94.70
2022-10-23T00:51:54.295Z,94.80
2022-10-23T00:53:04.985Z,94.80
2022-10-23T00:54:25.106Z,94.80
2022-10-23T00:55:29.198Z,95.00
2022-10-23T00:56:37.069Z,95.00
2022-10-23T00:57:45.055Z,95.00
2022-10-23T00:58:50.113Z,95.00
2022-10-23T00:59:53.759Z,95.00
2022-10-23T01:00:58.238Z,95.20
2022-10-23T01:02:01.417Z,95.20
2022-10-23T01:03:05.485Z,95.30
2022-10-23T01:04:09.274Z,95.30
2022-10-23T01:05:13.175Z,95.30
2022-10-23T01:06:28.075Z,95.30
2022-10-23T01:07:40.213Z,95.40
2022-10-23T01:08:53.986Z,95.50
2022-10-23T01:10:06.390Z,95.50
2022-10-23T01:11:18.862Z,95.60
2022-10-23T01:12:34.265Z,95.60
2022-10-23T01:13:50.753Z,95.70
2022-10-23T01:15:03.913Z,95.70
2022-10-23T01:16:19.756Z,95.60
2022-10-23T01:17:31.413Z,95.90
2022-10-23T01:18:42.922Z,96.10
2022-10-23T01:19:59.324Z,96.10
2022-10-23T01:21:08.537Z,95.90
2022-10-23T01:22:33.320Z,96.10
2022-10-23T01:24:08.997Z,96.20
2022-10-23T01:25:29.350Z,96.00
2022-10-23T01:27:00.771Z,96.00
2022-10-23T01:28:10.507Z,96.30
2022-10-23T01:29:21.274Z,96.30
2022-10-23T01:30:23.796Z,96.20
2022-10-23T01:31:37.145Z,96.20
2022-10-23T01:32:49.012Z,96.20
2022-10-23T01:34:00.096Z,96.20
2022-10-23T01:35:12.003Z,96.20
2022-10-23T01:36:18.132Z,96.10
2022-10-23T01:37:29.328Z,96.10
2022-10-23T01:38:43.327Z,96.30
2022-10-23T01:39:59.968Z,96.30
2022-10-23T01:41:11.944Z,96.30
2022-10-23T01:42:23.489Z,96.30
2022-10-23T01:43:30.457Z,96.30
2022-10-23T01:44:39.453Z,96.20
2022-10-23T01:45:47.911Z,96.20
2022-10-23T01:46:55.985Z,96.30
2022-10-23T01:48:04.079Z,96.30
2022-10-23T01:49:13.549Z,96.30
2022-10-23T01:50:20.944Z,96.20
2022-10-23T01:51:29.033Z,96.30
2022-10-23T01:52:39.037Z,96.30
2022-10-23T01:53:45.480Z,96.30
2022-10-23T01:54:53.991Z,96.30
2022-10-23T01:55:58.167Z,96.30
2022-10-23T01:57:06.391Z,96.30
2022-10-23T01:58:10.571Z,96.30
2022-10-23T01:59:25.386Z,96.30
2022-10-23T02:00:28.672Z,96.30
2022-10-23T02:01:34.442Z,96.30
2022-10-23T02:02:39.466Z,96.30
2022-10-23T02:03:45.397Z,96.30
2022-10-23T02:04:59.203Z,96.30
2022-10-23T02:06:03.015Z,96.30
2022-10-23T02:07:05.860Z,96.30
2022-10-23T02:08:09.585Z,96.30
2022-10-23T02:09:12.962Z,96.30
2022-10-23T02:10:18.047Z,96.30
2022-10-23T02:11:23.206Z,96.30
2022-10-23T02:12:39.588Z,96.30
2022-10-23T02:13:50.715Z,96.30
2022-10-23T02:15:04.777Z,96.30
2022-10-23T02:16:19.522Z,96.30
2022-10-23T02:17:30.700Z,96.30
2022-10-23T02:18:40.588Z,96.30
2022-10-23T02:19:51.557Z,96.30
2022-10-23T02:21:05.229Z,96.30
2022-10-23T02:22:15.558Z,96.30
2022-10-23T02:23:26.292Z,96.30
2022-10-23T02:24:37.648Z,96.30
2022-10-23T02:25:54.811Z,96.30
2022-10-23T02:27:03.976Z,96.30
2022-10-23T02:28:10.863Z,96.30
2022-10-23T02:29:25.999Z,96.30
2022-10-23T02:30:32.121Z,96.30
2022-10-23T02:31:45.102Z,96.30
2022-10-23T02:32:52.251Z,96.30
2022-10-23T02:33:55.840Z,96.30
2022-10-23T02:34:58.729Z,96.30
2022-10-23T02:36:05.372Z,96.30
2022-10-23T02:37:08.092Z,96.30
2022-10-23T02:38:32.387Z,96.30
2022-10-23T02:39:34.974Z,96.30
2022-10-23T02:40:45.341Z,96.30
2022-10-23T02:41:57.243Z,96.30
2022-10-23T02:43:09.566Z,96.30
2022-10-23T02:44:26.180Z,96.30
2022-10-23T02:45:36.251Z,96.30
2022-10-23T02:46:51.242Z,96.30
2022-10-23T02:48:06.305Z,96.30
2022-10-23T02:49:17.140Z,96.30
2022-10-23T02:50:28.593Z,96.30
2022-10-23T02:51:42.124Z,96.30
2022-10-23T02:52:55.589Z,96.30
2022-10-23T02:54:06.504Z,96.30
2022-10-23T02:55:24.958Z,96.30
2022-10-23T02:56:38.713Z,96.30
2022-10-23T02:57:54.280Z,96.30
2022-10-23T02:59:06.514Z,96.30
2022-10-23T03:00:17.377Z,96.30
2022-10-23T03:01:28.830Z,96.30
2022-10-23T03:02:38.355Z,96.30
2022-10-23T03:03:48.499Z,96.30
2022-10-23T03:04:56.136Z,96.30
2022-10-23T03:06:02.828Z,96.30
2022-10-23T03:07:05.968Z,96.30
2022-10-23T03:08:11.519Z,96.30
2022-10-23T03:09:14.177Z,96.30
2022-10-23T03:10:19.647Z,96.30
2022-10-23T03:11:23.147Z,96.30
2022-10-23T03:12:26.787Z,96.30
2022-10-23T03:13:30.483Z,96.30
2022-10-23T03:14:33.171Z,96.30
2022-10-23T03:15:38.298Z,96.30
2022-10-23T03:16:42.222Z,96.30
2022-10-23T03:17:46.172Z,96.30
2022-10-23T03:18:50.892Z,96.30
2022-10-23T03:19:55.007Z,96.30
2022-10-23T03:20:58.883Z,96.30
2022-10-23T03:22:01.409Z,96.30
2022-10-23T03:23:05.373Z,96.30
2022-10-23T03:24:08.660Z,96.30
2022-10-23T03:25:20.695Z,96.30
2022-10-23T03:26:23.372Z,96.30
2022-10-23T03:28:38.669Z,96.30
2022-10-23T03:29:41.564Z,96.30
2022-10-23T03:30:48.246Z,96.30
2022-10-23T03:31:54.152Z,96.30
2022-10-23T03:32:58.138Z,96.30
2022-10-23T03:34:02.251Z,96.30
2022-10-23T03:35:08.657Z,96.30
2022-10-23T03:36:12.168Z,96.30
2022-10-23T03:37:19.658Z,96.30
2022-10-23T03:38:23.051Z,96.30
2022-10-23T03:39:25.498Z,96.30
2022-10-23T03:40:29.050Z,96.30
2022-10-23T03:41:32.311Z,96.30
2022-10-23T03:42:35.840Z,96.30
2022-10-23T03:43:38.355Z,96.30
2022-10-23T03:44:43.084Z,96.30
2022-10-23T03:45:45.494Z,96.30
2022-10-23T03:46:49.051Z,96.30
2022-10-23T03:47:53.907Z,96.30
2022-10-23T03:48:58.273Z,96.30
2022-10-23T03:50:01.680Z,96.30
2022-10-23T03:51:04.982Z,96.30
2022-10-23T03:52:11.283Z,96.30
2022-10-23T03:53:13.842Z,96.30
2022-10-23T03:54:20.897Z,96.30
2022-10-23T03:55:25.699Z,96.30
2022-10-23T03:56:29.601Z,96.30
2022-10-23T03:57:32.605Z,96.30
2022-10-23T03:58:36.301Z,96.30
2022-10-23T03:59:38.756Z,96.30
2022-10-23T04:01:53.763Z,96.30
2022-10-23T04:02:58.784Z,96.30
2022-10-23T04:04:03.933Z,96.30
2022-10-23T04:05:08.514Z,96.30
2022-10-23T04:06:11.231Z,96.30
2022-10-23T04:07:17.550Z,96.30
2022-10-23T04:08:21.870Z,96.30
2022-10-23T04:09:28.959Z,96.30
2022-10-23T04:10:35.191Z,96.30
2022-10-23T04:11:43.242Z,96.30
2022-10-23T04:12:50.359Z,96.30
2022-10-23T04:13:53.848Z,96.30
2022-10-23T04:14:56.475Z,96.30
2022-10-23T04:16:00.044Z,96.30
2022-10-23T04:17:06.693Z,96.30
2022-10-23T04:18:13.848Z,96.30
2022-10-23T04:19:17.258Z,96.30
2022-10-23T04:20:23.275Z,96.30
2022-10-23T04:21:27.626Z,96.30
2022-10-23T04:22:31.024Z,96.30
2022-10-23T04:23:34.786Z,96.30
2022-10-23T04:24:41.324Z,96.30
2022-10-23T04:25:44.041Z,96.30
2022-10-23T04:26:47.686Z,96.30
2022-10-23T04:28:35.550Z,96.30
2022-10-23T04:30:55.706Z,96.30
2022-10-23T04:32:48.686Z,96.30
2022-10-23T04:35:02.080Z,96.30
2022-10-23T04:36:37.515Z,96.30
2022-10-23T04:38:49.248Z,96.30
2022-10-23T04:40:50.395Z,96.30
2022-10-23T04:42:50.909Z,96.30
2022-10-23T04:45:15.345Z,96.30
2022-10-23T04:49:09.486Z,96.30
2022-10-23T04:53:14.601Z,96.30
2022-10-23T04:56:24.386Z,96.30
2022-10-23T04:57:35.574Z,96.30
2022-10-23T04:58:43.056Z,96.30
2022-10-23T04:59:47.946Z,96.30
2022-10-23T05:00:52.396Z,96.30
2022-10-23T05:02:01.269Z,96.30
2022-10-23T05:03:05.560Z,96.30
2022-10-23T05:04:14.893Z,96.30
2022-10-23T05:05:36.778Z,96.30
2022-10-23T05:06:59.085Z,96.30
2022-10-23T05:08:32.535Z,96.30
2022-10-23T05:09:55.265Z,96.30
2022-10-23T05:11:15.498Z,96.30
2022-10-23T05:12:25.506Z,96.30
2022-10-23T05:13:29.280Z,96.30
2022-10-23T05:14:33.870Z,96.30
2022-10-23T05:15:39.808Z,96.30
2022-10-23T05:16:48.299Z,96.30
2022-10-23T05:17:56.680Z,96.30
2022-10-23T05:19:02.386Z,96.30
2022-10-23T05:20:13.867Z,96.30
2022-10-23T05:21:23.441Z,96.30
2022-10-23T05:22:30.605Z,96.30
2022-10-23T05:23:39.438Z,96.30
2022-10-23T05:24:44.850Z,96.30
2022-10-23T05:25:50.439Z,96.30
2022-10-23T05:26:55.485Z,96.30
2022-10-23T05:28:02.354Z,96.30
2022-10-23T05:29:05.067Z,96.30
2022-10-23T05:30:10.631Z,96.30
2022-10-23T05:31:14.773Z,96.30
2022-10-23T05:32:23.822Z,96.30
2022-10-23T05:33:26.554Z,96.30
2022-10-23T05:34:34.554Z,96.30
2022-10-23T05:35:38.786Z,96.30
2022-10-23T05:36:44.681Z,96.30
2022-10-23T05:37:51.468Z,96.30
2022-10-23T05:39:01.715Z,96.30
2022-10-23T05:40:05.230Z,96.30
2022-10-23T05:41:11.358Z,96.30
2022-10-23T05:42:13.883Z,96.30
2022-10-23T05:43:21.356Z,96.30
2022-10-23T05:44:37.884Z,96.30
2022-10-23T05:46:13.951Z,96.30
2022-10-23T05:47:33.515Z,96.30
2022-10-23T05:48:53.160Z,96.30
2022-10-23T05:50:18.271Z,96.30
2022-10-23T05:51:23.137Z,96.30
2022-10-23T05:52:55.766Z,96.30
2022-10-23T05:54:19.618Z,96.30
2022-10-23T05:55:46.607Z,96.30
2022-10-23T05:57:09.733Z,96.30
2022-10-23T05:58:23.878Z,96.30
2022-10-23T05:59:36.068Z,96.30
2022-10-23T06:01:18.439Z,96.30
2022-10-23T06:02:35.405Z,96.30
2022-10-23T06:03:49.986Z,96.30
2022-10-23T06:04:57.028Z,96.30
2022-10-23T06:06:25.874Z,96.30
2022-10-23T06:07:33.550Z,96.30
2022-10-23T06:08:41.239Z,96.30
2022-10-23T06:09:43.867Z,96.30
2022-10-23T06:10:49.791Z,96.30
2022-10-23T06:11:53.298Z,96.30
2022-10-23T06:12:59.084Z,96.30
2022-10-23T06:14:03.865Z,96.30
2022-10-23T06:15:12.655Z,96.30
2022-10-23T06:16:37.140Z,96.30
2022-10-23T06:17:42.795Z,96.30
2022-10-23T06:18:47.478Z,96.30
2022-10-23T06:19:54.432Z,96.30
2022-10-23T06:21:00.485Z,96.30
2022-10-23T06:22:05.343Z,96.30
2022-10-23T06:23:21.114Z,96.30
2022-10-23T06:24:55.590Z,96.30
2022-10-23T06:26:03.379Z,96.30
2022-10-23T06:27:12.415Z,96.30
2022-10-23T06:28:20.688Z,96.30
2022-10-23T06:29:28.120Z,96.30
2022-10-23T06:30:31.005Z,96.30
2022-10-23T06:31:35.858Z,96.30
2022-10-23T06:32:39.934Z,96.30
2022-10-23T06:33:49.950Z,96.30
2022-10-23T06:34:53.372Z,96.30
2022-10-23T06:35:59.561Z,96.30
2022-10-23T06:37:03.441Z,96.30
2022-10-23T06:38:21.646Z,96.30
2022-10-23T06:39:32.473Z,96.30
2022-10-23T06:40:57.283Z,96.30
2022-10-23T06:42:17.526Z,96.30
2022-10-23T06:43:26.262Z,96.30
2022-10-23T06:44:54.463Z,96.30
2022-10-23T06:46:18.077Z,96.30
2022-10-23T06:47:40.934Z,96.30
2022-10-23T06:49:03.234Z,96.30
2022-10-23T06:50:13.056Z,96.30
2022-10-23T06:51:22.013Z,96.30
2022-10-23T06:52:45.799Z,96.30
2022-10-23T06:53:52.144Z,96.30
2022-10-23T06:55:13.333Z,96.30
2022-10-23T06:56:18.863Z,96.30
2022-10-23T06:57:21.565Z,96.30
2022-10-23T06:58:27.877Z,96.30
2022-10-23T06:59:39.496Z,96.30
2022-10-23T07:00:46.641Z,96.30
2022-10-23T07:01:58.532Z,96.30
2022-10-23T07:03:01.865Z,96.30
2022-10-23T07:04:07.368Z,96.30
2022-10-23T07:05:13.540Z,96.30
2022-10-23T07:06:19.722Z,96.30
2022-10-23T07:07:22.352Z,96.30
2022-10-23T07:08:26.856Z,96.30
2022-10-23T07:09:32.908Z,96.30
2022-10-23T07:10:59.657Z,96.30
2022-10-23T07:12:02.231Z,96.30
2022-10-23T07:13:16.780Z,96.30
2022-10-23T07:14:47.074Z,96.30
2022-10-23T07:15:55.267Z,96.30
2022-10-23T07:17:01.488Z,96.30
2022-10-23T07:18:05.829Z,96.30
2022-10-23T07:19:29.196Z,96.30
2022-10-23T07:20:34.940Z,96.30
2022-10-23T07:21:38.928Z,96.30
2022-10-23T07:23:03.006Z,96.30
2022-10-23T07:24:12.715Z,96.30
2022-10-23T07:25:17.472Z,96.30
2022-10-23T07:26:23.235Z,96.30
2022-10-23T07:27:26.902Z,96.30
2022-10-23T07:28:33.432Z,96.30
2022-10-23T07:29:36.461Z,96.30
2022-10-23T07:30:43.563Z,96.30
2022-10-23T07:31:52.446Z,96.30
2022-10-23T07:33:13.942Z,96.30
2022-10-23T07:34:27.112Z,96.30
2022-10-23T07:35:48.563Z,96.30
2022-10-23T07:37:00.370Z,96.30
2022-10-23T07:38:05.662Z,96.30
2022-10-23T07:39:14.366Z,96.30
2022-10-23T07:40:24.847Z,96.30
2022-10-23T07:41:31.744Z,96.30
2022-10-23T07:42:35.332Z,96.30
2022-10-23T07:43:39.813Z,96.30
2022-10-23T07:44:44.466Z,96.30
2022-10-23T07:45:50.931Z,96.30
2022-10-23T07:47:08.126Z,96.30
2022-10-23T07:48:11.478Z,96.30
2022-10-23T07:49:34.886Z,96.30
2022-10-23T07:50:39.142Z,96.30
2022-10-23T07:51:47.678Z,96.30
2022-10-23T07:52:54.318Z,96.30
2022-10-23T07:55:24.327Z,96.30
2022-10-23T07:56:37.093Z,96.30
2022-10-23T07:57:51.915Z,96.30
2022-10-23T07:59:14.845Z,96.30
2022-10-23T08:02:41.656Z,96.30
2022-10-23T08:03:48.760Z,96.30
2022-10-23T08:06:05.563Z,96.30
2022-10-23T08:07:08.962Z,96.30
2022-10-23T08:08:18.695Z,96.30
2022-10-23T08:09:26.261Z,96.30
2022-10-23T08:10:30.347Z,96.30
2022-10-23T08:11:37.527Z,96.30
2022-10-23T08:13:48.937Z,96.30
2022-10-23T08:14:55.284Z,96.30
2022-10-23T08:15:59.642Z,96.30
2022-10-23T08:17:24.024Z,96.30
2022-10-23T08:18:41.481Z,96.30
2022-10-23T08:19:46.599Z,96.20
2022-10-23T08:20:52.609Z,96.10
2022-10-23T08:21:57.189Z,96.30
2022-10-23T08:23:02.990Z,96.10
2022-10-23T08:24:06.697Z,96.10
2022-10-23T08:25:11.712Z,96.00
2022-10-23T08:26:15.608Z,95.80
2022-10-23T08:27:22.379Z,95.90
2022-10-23T08:28:26.454Z,95.90
2022-10-23T08:29:33.778Z,96.00
2022-10-23T08:30:37.751Z,95.90
2022-10-23T08:31:42.780Z,95.90
2022-10-23T08:33:19.634Z,95.90
2022-10-23T08:34:24.186Z,95.90
2022-10-23T08:35:29.612Z,95.90
2022-10-23T08:36:36.513Z,95.70
2022-10-23T08:37:41.309Z,95.70
2022-10-23T08:38:45.215Z,95.80
2022-10-23T08:39:56.657Z,95.80
2022-10-23T08:41:29.258Z,95.80
2022-10-23T08:42:44.805Z,95.90
2022-10-23T08:43:56.196Z,95.80
2022-10-23T08:45:30.406Z,95.90
2022-10-23T08:46:51.495Z,95.80
2022-10-23T08:48:25.312Z,95.70
2022-10-23T08:50:08.340Z,95.80
2022-10-23T08:51:19.468Z,95.70
2022-10-23T08:52:31.320Z,95.80
2022-10-23T08:53:45.357Z,95.60
2022-10-23T08:55:04.848Z,95.70
2022-10-23T08:56:14.442Z,95.70
2022-10-23T08:57:25.261Z,95.70
2022-10-23T08:58:39.051Z,95.60
2022-10-23T08:59:48.716Z,95.60
2022-10-23T09:00:53.838Z,95.40
2022-10-23T09:02:06.243Z,95.30
2022-10-23T09:03:15.121Z,95.30
2022-10-23T09:04:20.281Z,95.10
2022-10-23T09:05:32.417Z,95.10
2022-10-23T09:06:39.940Z,95.10
2022-10-23T09:08:14.897Z,95.00
2022-10-23T09:09:57.184Z,94.80
2022-10-23T09:11:07.206Z,94.80
2022-10-23T09:12:16.770Z,94.80
2022-10-23T09:13:58.418Z,94.70
2022-10-23T09:15:31.759Z,94.60
2022-10-23T09:17:04.245Z,94.60
2022-10-23T09:18:16.046Z,94.50
2022-10-23T09:19:24.752Z,94.50
2022-10-23T09:20:34.497Z,94.50
2022-10-23T09:21:37.590Z,94.30
2022-10-23T09:22:43.196Z,94.30
2022-10-23T09:23:48.171Z,94.30
2022-10-23T09:24:53.794Z,94.30
2022-10-23T09:26:01.391Z,94.20
2022-10-23T09:28:18.565Z,94.20
2022-10-23T09:29:27.545Z,94.10
2022-10-23T09:30:35.941Z,94.20
2022-10-23T09:31:50.050Z,94.20
2022-10-23T09:32:54.089Z,94.30
2022-10-23T09:34:01.430Z,94.30
2022-10-23T09:35:07.654Z,94.40
2022-10-23T09:36:25.913Z,94.30
2022-10-23T09:37:33.196Z,94.20
2022-10-23T09:38:39.657Z,94.40
2022-10-23T09:39:43.661Z,94.40
2022-10-23T09:40:47.919Z,94.50
2022-10-23T09:41:54.132Z,94.60
2022-10-23T09:43:06.294Z,94.50
2022-10-23T09:44:20.845Z,94.50
2022-10-23T09:45:30.429Z,94.50
2022-10-23T09:46:44.694Z,94.60
2022-10-23T09:47:48.217Z,94.60
2022-10-23T09:49:03.481Z,94.70
2022-10-23T09:50:23.283Z,94.70
2022-10-23T09:51:30.151Z,94.80
2022-10-23T09:52:38.155Z,94.80
2022-10-23T09:53:53.090Z,94.80
2022-10-23T09:55:01.395Z,94.90
2022-10-23T09:56:24.609Z,94.90
2022-10-23T09:57:37.238Z,94.90
2022-10-23T09:58:55.553Z,94.90
2022-10-23T10:00:04.143Z,94.80
2022-10-23T10:01:26.753Z,94.80
2022-10-23T10:02:37.080Z,94.80
2022-10-23T10:03:51.955Z,94.80
2022-10-23T10:04:59.832Z,94.80
2022-10-23T10:06:07.013Z,94.80
2022-10-23T10:07:23.023Z,94.80
2022-10-23T10:08:44.415Z,94.80
2022-10-23T10:09:47.759Z,94.70
2022-10-23T10:10:57.903Z,94.70
2022-10-23T10:12:51.270Z,94.60
2022-10-23T10:14:43.692Z,94.50
2022-10-23T10:15:53.993Z,94.40
2022-10-23T10:17:05.989Z,94.30
2022-10-23T10:18:19.814Z,94.30
2022-10-23T10:19:44.873Z,94.20
2022-10-23T10:21:05.927Z,94.10
2022-10-23T10:22:26.223Z,94.20
2022-10-23T10:23:40.642Z,94.10
2022-10-23T10:24:53.942Z,94.00
2022-10-23T10:26:09.707Z,94.00
2022-10-23T10:27:30.022Z,94.00
2022-10-23T10:28:55.478Z,93.80
2022-10-23T10:30:10.559Z,93.80
2022-10-23T10:31:26.164Z,93.70
2022-10-23T10:32:44.217Z,93.70
2022-10-23T10:34:02.733Z,93.70
2022-10-23T10:35:35.794Z,93.60
2022-10-23T10:36:51.478Z,93.50
2022-10-23T10:38:28.521Z,93.40
2022-10-23T10:39:44.449Z,93.40
2022-10-23T10:41:06.311Z,93.30
2022-10-23T10:42:55.688Z,93.30
2022-10-23T10:44:35.390Z,93.20
2022-10-23T10:45:43.316Z,93.10
2022-10-23T10:46:56.572Z,93.10
2022-10-23T10:48:26.951Z,93.00
2022-10-23T10:50:03.516Z,93.00
2022-10-23T10:51:28.798Z,92.90
2022-10-23T10:52:40.172Z,92.90
2022-10-23T10:54:03.757Z,92.80
2022-10-23T10:55:20.307Z,92.70
2022-10-23T10:56:28.426Z,92.60
2022-10-23T10:57:38.783Z,92.50
2022-10-23T10:58:52.372Z,92.40
2022-10-23T11:00:00.650Z,92.30
2022-10-23T11:01:12.893Z,92.20
2022-10-23T11:02:27.936Z,92.20
2022-10-23T11:03:42.700Z,92.20
2022-10-23T11:04:52.861Z,92.10
2022-10-23T11:07:13.350Z,92.00
2022-10-23T11:08:22.450Z,91.90
2022-10-23T11:09:29.935Z,91.80
2022-10-23T11:10:41.704Z,91.80
2022-10-23T11:11:44.981Z,91.80
2022-10-23T11:12:51.893Z,91.60
2022-10-23T11:13:54.965Z,91.50
2022-10-23T11:14:59.177Z,91.30
2022-10-23T11:16:12.610Z,91.30
2022-10-23T11:17:24.279Z,91.30
2022-10-23T11:18:31.842Z,91.10
2022-10-23T11:19:42.746Z,91.00
2022-10-23T11:21:09.375Z,90.90
2022-10-23T11:22:23.292Z,90.60
2022-10-23T11:24:06.179Z,90.70
2022-10-23T11:25:48.442Z,90.60
2022-10-23T11:27:23.942Z,90.40
2022-10-23T11:28:52.079Z,90.30
2022-10-23T11:30:18.741Z,90.30
2022-10-23T11:31:33.501Z,90.20
2022-10-23T11:33:16.143Z,90.20
2022-10-23T11:35:05.675Z,90.20
2022-10-23T11:36:17.710Z,89.90
2022-10-23T11:37:24.591Z,89.60
2022-10-23T11:38:31.136Z,89.40
2022-10-23T11:39:36.586Z,89.40
2022-10-23T11:41:57.462Z,88.50
2022-10-23T11:43:00.385Z,88.50
2022-10-23T11:44:05.806Z,88.40
2022-10-23T11:45:35.355Z,88.30
2022-10-23T11:46:40.045Z,87.80
2022-10-23T11:47:43.951Z,87.90
2022-10-23T11:48:49.895Z,87.50
2022-10-23T11:50:26.885Z,87.50
2022-10-23T11:51:33.366Z,87.00
2022-10-23T11:52:45.693Z,87.00
2022-10-23T11:54:28.878Z,86.70
2022-10-23T11:55:33.320Z,85.60
2022-10-23T11:56:39.799Z,85.10
2022-10-23T11:57:43.291Z,84.60
2022-10-23T11:58:51.812Z,84.50
2022-10-23T11:59:56.542Z,83.90
2022-10-23T12:01:06.889Z,84.30
2022-10-23T12:02:37.658Z,84.40
2022-10-23T12:03:53.630Z,84.90
2022-10-23T12:05:01.021Z,84.00
2022-10-23T12:06:07.544Z,83.70
2022-10-23T12:07:24.087Z,83.80
2022-10-23T12:08:35.259Z,83.50
2022-10-23T12:09:45.491Z,83.50
2022-10-23T12:10:53.405Z,83.30
2022-10-23T12:12:18.848Z,83.60
2022-10-23T12:13:44.721Z,83.40
2022-10-23T12:14:51.583Z,81.90
2022-10-23T12:15:58.517Z,83.00
2022-10-23T12:17:20.273Z,82.80
2022-10-23T12:18:24.345Z,82.80
2022-10-23T12:19:31.364Z,83.10
2022-10-23T12:20:47.144Z,83.10
2022-10-23T12:21:54.407Z,83.00
2022-10-23T12:23:28.593Z,83.20
2022-10-23T12:25:03.141Z,82.80
2022-10-23T12:26:28.311Z,83.00
2022-10-23T12:27:43.989Z,83.50
2022-10-23T12:28:57.321Z,83.70
2022-10-23T12:30:22.268Z,83.70
2022-10-23T12:31:44.293Z,84.00
2022-10-23T12:33:19.126Z,84.20
2022-10-23T12:34:41.651Z,84.60
2022-10-23T12:36:23.339Z,84.20
2022-10-23T12:37:52.650Z,84.60
2022-10-23T12:38:58.691Z,84.90
2022-10-23T12:40:03.565Z,84.90
2022-10-23T12:41:14.667Z,84.40
2022-10-23T12:42:26.886Z,84.60
2022-10-23T12:43:38.632Z,84.40
2022-10-23T12:44:43.714Z,84.60
2022-10-23T12:45:47.481Z,84.40
2022-10-23T12:46:58.337Z,84.70
2022-10-23T12:48:02.314Z,84.80
2022-10-23T12:49:16.162Z,84.50
2022-10-23T12:50:21.823Z,84.80
2022-10-23T12:51:29.598Z,84.70
2022-10-23T12:52:36.188Z,84.70
2022-10-23T12:53:40.520Z,84.50
2022-10-23T12:54:44.668Z,84.40
2022-10-23T12:55:55.061Z,84.70
2022-10-23T12:56:58.101Z,84.60
2022-10-23T12:58:03.875Z,84.50
2022-10-23T12:59:17.661Z,84.40
2022-10-23T13:00:25.578Z,84.40
2022-10-23T13:01:31.629Z,84.30
2022-10-23T13:02:37.269Z,84.10
2022-10-23T13:03:41.702Z,84.00
2022-10-23T13:04:49.785Z,83.90
2022-10-23T13:05:56.155Z,83.60
2022-10-23T13:07:05.946Z,83.80
2022-10-23T13:08:11.212Z,84.00
2022-10-23T13:09:30.175Z,84.00
2022-10-23T13:10:59.730Z,84.00
2022-10-23T13:12:08.641Z,84.20
2022-10-23T13:13:14.169Z,84.20
2022-10-23T13:14:39.468Z,84.30
2022-10-23T13:15:47.267Z,84.40
2022-10-23T13:17:01.180Z,84.10
2022-10-23T13:18:08.241Z,84.10
2022-10-23T13:19:24.585Z,84.20
2022-10-23T13:20:31.420Z,83.90
2022-10-23T13:21:37.988Z,84.10
2022-10-23T13:22:43.698Z,84.10
2022-10-23T13:23:49.468Z,84.30
2022-10-23T13:24:52.467Z,84.00
2022-10-23T13:25:59.093Z,84.00
2022-10-23T13:27:02.725Z,84.20
2022-10-23T13:28:26.185Z,84.20
2022-10-23T13:29:37.328Z,83.80
2022-10-23T13:30:43.503Z,84.00
2022-10-23T13:31:47.921Z,83.80
2022-10-23T13:32:53.459Z,84.00
2022-10-23T13:34:24.564Z,84.00
2022-10-23T13:35:31.228Z,83.90
2022-10-23T13:36:39.497Z,84.10
2022-10-23T13:38:59.902Z,83.80
2022-10-23T13:40:07.620Z,84.00
2022-10-23T13:41:15.835Z,84.00
2022-10-23T13:42:22.123Z,83.80
2022-10-23T13:43:28.209Z,83.80
2022-10-23T13:44:33.242Z,83.80
2022-10-23T13:45:42.626Z,83.90
2022-10-23T13:46:46.813Z,83.80
2022-10-23T13:47:53.202Z,83.80
2022-10-23T13:48:58.966Z,83.90
2022-10-23T13:50:02.961Z,83.80
2022-10-23T13:51:15.220Z,83.70
2022-10-23T13:52:24.697Z,83.60
2022-10-23T13:53:27.450Z,83.70
2022-10-23T13:54:32.542Z,83.80
2022-10-23T13:55:36.843Z,83.70
2022-10-23T13:56:40.408Z,83.70
2022-10-23T13:57:43.981Z,83.90
2022-10-23T13:58:48.888Z,84.00
2022-10-23T13:59:54.219Z,83.80
2022-10-23T14:01:00.001Z,83.90
2022-10-23T14:02:05.815Z,83.90
2022-10-23T14:03:10.659Z,83.90
2022-10-23T14:04:18.054Z,84.00
2022-10-23T14:05:20.786Z,84.00
2022-10-23T14:06:24.949Z,84.10
2022-10-23T14:07:32.806Z,84.00
2022-10-23T14:08:36.000Z,83.80
2022-10-23T14:09:39.564Z,83.60
2022-10-23T14:10:42.023Z,83.70
2022-10-23T14:11:46.276Z,83.90
2022-10-23T14:12:53.707Z,83.80
2022-10-23T14:13:57.644Z,84.00
2022-10-23T14:15:02.613Z,84.20
2022-10-23T14:16:06.458Z,84.20
2022-10-23T14:17:10.152Z,84.10
2022-10-23T14:18:12.604Z,84.50
2022-10-23T14:19:16.543Z,84.40
2022-10-23T14:20:23.235Z,84.30
2022-10-23T14:21:28.363Z,84.10
2022-10-23T14:22:33.047Z,83.70
2022-10-23T14:23:35.872Z,83.40
2022-10-23T14:24:40.141Z,82.90
2022-10-23T14:25:44.753Z,83.10
2022-10-23T14:26:50.869Z,83.10
2022-10-23T14:29:04.473Z,83.40
2022-10-23T14:30:13.925Z,83.70
2022-10-23T14:31:19.810Z,83.60
2022-10-23T14:32:23.311Z,82.30
2022-10-23T14:33:25.940Z,82.40
2022-10-23T14:34:29.542Z,81.70
2022-10-23T14:35:32.047Z,81.70
2022-10-23T14:36:49.288Z,81.20
2022-10-23T14:37:55.943Z,80.90
2022-10-23T14:39:00.352Z,80.70
2022-10-23T14:40:05.568Z,80.60
2022-10-23T14:41:14.603Z,80.60
2022-10-23T14:42:19.235Z,81.20
2022-10-23T14:43:23.233Z,81.10
2022-10-23T14:45:32.509Z,81.00
2022-10-23T14:46:38.474Z,81.20
2022-10-23T14:47:43.875Z,81.50
2022-10-23T14:48:51.044Z,81.70
2022-10-23T14:50:00.503Z,82.00
2022-10-23T14:51:06.377Z,82.10
2022-10-23T14:52:10.902Z,82.30
2022-10-23T14:53:16.806Z,82.50
2022-10-23T14:54:21.043Z,82.50
2022-10-23T14:55:24.123Z,82.70
2022-10-23T14:56:29.482Z,82.80
2022-10-23T14:57:34.067Z,82.90
2022-10-23T14:58:37.433Z,83.10
2022-10-23T14:59:41.155Z,83.20
2022-10-23T15:00:45.705Z,83.40
2022-10-23T15:01:49.596Z,83.50
2022-10-23T15:02:52.468Z,83.60
2022-10-23T15:03:57.064Z,83.70
2022-10-23T15:05:04.912Z,83.80
2022-10-23T15:06:08.547Z,84.00
2022-10-23T15:07:12.539Z,84.10
2022-10-23T15:08:15.235Z,84.30
2022-10-23T15:09:20.334Z,84.40
2022-10-23T15:10:25.667Z,84.60
2022-10-23T15:11:29.628Z,84.70
2022-10-23T15:12:34.459Z,84.80
2022-10-23T15:13:37.273Z,85.00
2022-10-23T15:14:44.056Z,85.10
2022-10-23T15:15:48.363Z,85.20
2022-10-23T15:16:52.846Z,85.30
2022-10-23T15:17:55.660Z,85.40
2022-10-23T15:18:59.372Z,85.50
2022-10-23T15:20:02.446Z,85.60
2022-10-23T15:21:08.343Z,85.60
2022-10-23T15:22:11.463Z,85.70
2022-10-23T15:23:18.067Z,85.90
2022-10-23T15:24:21.265Z,85.90
2022-10-23T15:25:25.792Z,85.90
2022-10-23T15:26:28.287Z,86.10
2022-10-23T15:27:35.352Z,86.20
2022-10-23T15:28:39.678Z,86.20
2022-10-23T15:29:43.224Z,86.30
2022-10-23T15:30:48.926Z,86.40
2022-10-23T15:31:56.828Z,86.30
2022-10-23T15:33:00.732Z,86.40
2022-10-23T15:34:04.962Z,86.50
2022-10-23T15:35:10.092Z,86.60